Time;durP1;ratioP1;P1;durP2;ratioP2;P2;SDS_P1;SDS_P2;PMS_P1;PMS_P2;Temp;Humidity;BMP_temperature;BMP_pressure;BME280_temperature;BME280_humidity;BME280_pressure;Samples;Min_cycle;Max_cycle;Signal;HPM_P1;HPM_P2
2021/03/01 00:00:27;;;;;;;17.33;11.00;;;7.00;99.90;;;;;;5089955;28;20186;-73
2021/03/01 00:02:52;;;;;;;18.30;12.30;;;6.90;99.90;;;;;;5074259;28;20203;-74
2021/03/01 00:05:20;;;;;;;18.37;12.03;;;7.00;99.90;;;;;;5079183;28;20437;-74
2021/03/01 00:07:45;;;;;;;19.90;12.70;;;7.10;99.90;;;;;;5074084;28;20633;-73
2021/03/01 00:10:11;;;;;;;17.97;12.60;;;7.10;99.90;;;;;;5070773;28;20441;-72
2021/03/01 00:12:37;;;;;;;19.63;12.17;;;7.10;99.90;;;;;;5079548;28;20183;-73
2021/03/01 00:15:05;;;;;;;14.13;10.50;;;7.00;99.90;;;;;;5074529;28;20781;-72
2021/03/01 00:17:30;;;;;;;13.87;11.00;;;7.10;99.90;;;;;;5073203;28;20179;-73
2021/03/01 00:19:56;;;;;;;20.33;11.77;;;7.10;99.90;;;;;;5085998;28;20435;-72
2021/03/01 00:22:21;;;;;;;17.90;11.40;;;7.10;99.90;;;;;;5083790;28;20291;-72
2021/03/01 00:24:47;;;;;;;20.07;13.13;;;7.20;99.90;;;;;;5071845;28;20189;-73
2021/03/01 00:27:13;;;;;;;15.70;11.33;;;7.20;99.90;;;;;;5074877;28;20215;-72
2021/03/01 00:29:38;;;;;;;16.27;11.50;;;7.10;99.90;;;;;;5071993;28;20201;-73
2021/03/01 00:32:04;;;;;;;15.70;11.90;;;7.00;99.90;;;;;;5082540;28;20186;-73
2021/03/01 00:34:30;;;;;;;17.27;11.37;;;6.70;99.90;;;;;;5075549;28;20195;-74
2021/03/01 00:36:56;;;;;;;18.60;11.67;;;6.50;99.90;;;;;;5076304;28;20434;-72
2021/03/01 00:39:21;;;;;;;18.97;12.17;;;6.50;99.90;;;;;;5076752;28;20268;-72
2021/03/01 00:41:47;;;;;;;17.43;11.90;;;6.30;99.90;;;;;;5076234;28;20286;-72
2021/03/01 00:44:12;;;;;;;17.07;11.00;;;6.30;99.90;;;;;;5086011;28;20289;-72
2021/03/01 00:46:38;;;;;;;13.70;10.17;;;6.20;99.90;;;;;;5069381;28;20182;-71
2021/03/01 00:49:04;;;;;;;15.50;9.60;;;6.20;99.90;;;;;;5075609;28;20198;-72
2021/03/01 00:51:30;;;;;;;13.63;10.63;;;6.20;99.90;;;;;;5077278;28;20274;-72
2021/03/01 00:53:55;;;;;;;17.07;10.60;;;6.20;99.90;;;;;;5074045;28;20542;-72
2021/03/01 00:56:21;;;;;;;15.27;9.83;;;6.10;99.90;;;;;;5073818;28;20175;-71
2021/03/01 00:58:46;;;;;;;16.20;10.27;;;6.20;99.90;;;;;;5073460;28;20188;-71
2021/03/01 01:01:12;;;;;;;14.70;10.33;;;6.40;99.90;;;;;;5083748;28;20199;-71
2021/03/01 01:03:38;;;;;;;14.30;9.67;;;6.50;99.90;;;;;;5083473;28;20179;-71
2021/03/01 01:06:04;;;;;;;13.80;10.00;;;6.60;99.90;;;;;;5086226;28;20246;-74
2021/03/01 01:08:29;;;;;;;15.10;9.47;;;6.60;99.90;;;;;;5088989;28;20249;-73
2021/03/01 01:10:55;;;;;;;12.93;9.10;;;6.60;99.90;;;;;;5080704;28;20566;-75
2021/03/01 01:13:20;;;;;;;14.37;9.60;;;6.50;99.90;;;;;;5080415;28;20246;-75
2021/03/01 01:15:46;;;;;;;11.47;9.30;;;6.50;99.90;;;;;;5076899;28;20180;-75
2021/03/01 01:18:12;;;;;;;12.63;8.87;;;6.50;99.90;;;;;;5093735;28;20194;-73
2021/03/01 01:20:37;;;;;;;12.83;8.70;;;6.60;99.90;;;;;;5081108;28;20270;-73
2021/03/01 01:23:03;;;;;;;12.70;8.03;;;6.50;99.90;;;;;;5078337;28;20219;-73
2021/03/01 01:25:29;;;;;;;12.07;8.10;;;6.50;99.90;;;;;;5079111;28;20216;-72
2021/03/01 01:27:56;;;;;;;10.30;7.70;;;6.50;99.90;;;;;;5073583;28;20301;-75
2021/03/01 01:30:24;;;;;;;12.13;8.33;;;6.40;99.90;;;;;;5074940;28;20894;-75
2021/03/01 01:32:52;;;;;;;12.30;8.10;;;6.30;99.90;;;;;;5091650;28;20432;-74
2021/03/01 01:35:19;;;;;;;11.63;7.80;;;6.40;99.90;;;;;;5084353;28;20434;-74
2021/03/01 01:37:45;;;;;;;13.80;8.47;;;6.30;99.90;;;;;;5076107;28;20449;-75
2021/03/01 01:40:13;;;;;;;10.60;7.87;;;6.20;99.90;;;;;;5074067;28;20441;-72
2021/03/01 01:42:39;;;;;;;11.13;8.20;;;6.10;99.90;;;;;;5073896;28;20468;-71
2021/03/01 01:45:10;;;;;;;13.47;9.53;;;6.30;99.90;;;;;;5084529;28;20438;-73
2021/03/01 01:47:35;;;;;;;9.70;7.13;;;6.40;99.90;;;;;;5073552;28;20528;-72
2021/03/01 01:50:03;;;;;;;11.30;7.73;;;6.60;99.90;;;;;;5072735;28;21006;-73
2021/03/01 01:52:29;;;;;;;10.77;7.70;;;6.60;99.90;;;;;;5080037;28;20537;-71
2021/03/01 01:54:55;;;;;;;12.07;7.70;;;6.60;99.90;;;;;;5077203;28;20453;-72
2021/03/01 01:57:22;;;;;;;14.13;7.87;;;6.70;99.90;;;;;;5066316;28;20211;-71
2021/03/01 01:59:47;;;;;;;10.80;7.97;;;6.70;99.90;;;;;;5081377;28;20475;-71
2021/03/01 02:02:14;;;;;;;10.10;7.50;;;6.60;99.90;;;;;;5077690;28;20461;-72
2021/03/01 02:04:44;;;;;;;9.20;6.70;;;6.60;99.90;;;;;;5076321;28;20903;-72
2021/03/01 02:07:20;;;;;;;9.40;6.30;;;6.60;99.90;;;;;;5069877;28;20430;-73
2021/03/01 02:10:05;;;;;;;10.13;7.37;;;6.60;99.90;;;;;;5071987;28;20441;-72
2021/03/01 02:12:49;;;;;;;12.27;8.30;;;6.70;99.90;;;;;;5074389;28;21095;-73
2021/03/01 02:15:43;;;;;;;9.13;7.23;;;6.70;99.90;;;;;;5083377;28;20445;-72
2021/03/01 02:18:10;;;;;;;9.40;6.57;;;6.60;99.90;;;;;;5078578;28;20441;-72
2021/03/01 02:20:42;;;;;;;9.17;6.43;;;6.50;99.90;;;;;;5081381;28;20956;-71
2021/03/01 02:23:10;;;;;;;10.43;6.80;;;6.40;99.90;;;;;;5075237;28;20551;-72
2021/03/01 02:25:37;;;;;;;10.70;7.13;;;6.30;99.90;;;;;;5070837;28;20826;-72
2021/03/01 02:28:07;;;;;;;9.97;6.63;;;6.40;99.90;;;;;;5074001;28;20440;-72
2021/03/01 02:30:36;;;;;;;7.10;5.87;;;6.30;99.90;;;;;;5077271;28;20449;-73
2021/03/01 02:33:10;;;;;;;10.03;7.37;;;6.10;99.90;;;;;;5072948;28;20575;-71
2021/03/01 02:35:44;;;;;;;13.20;7.27;;;6.10;99.90;;;;;;5072704;28;20958;-73
2021/03/01 02:38:11;;;;;;;10.67;7.27;;;6.20;99.90;;;;;;5076688;28;20432;-72
2021/03/01 02:40:40;;;;;;;9.00;6.80;;;6.30;99.90;;;;;;5082246;28;20441;-71
2021/03/01 02:43:07;;;;;;;11.83;7.40;;;6.40;99.90;;;;;;5074299;28;20472;-71
2021/03/01 02:45:32;;;;;;;11.17;7.47;;;6.50;99.90;;;;;;5092236;28;20936;-71
2021/03/01 02:48:01;;;;;;;14.03;8.03;;;6.40;99.90;;;;;;5072683;28;20449;-72
2021/03/01 02:50:28;;;;;;;11.47;6.80;;;6.30;99.90;;;;;;5078681;28;20196;-72
2021/03/01 02:52:54;;;;;;;8.90;6.70;;;6.30;99.90;;;;;;5076833;28;20783;-73
2021/03/01 02:55:21;;;;;;;9.43;6.97;;;6.40;99.90;;;;;;5073063;28;20445;-73
2021/03/01 02:57:47;;;;;;;10.17;6.93;;;6.50;99.90;;;;;;5074161;28;20502;-73
2021/03/01 03:00:13;;;;;;;11.00;7.23;;;6.50;99.90;;;;;;5088050;28;20449;-73
2021/03/01 03:02:41;;;;;;;8.80;6.17;;;6.60;99.90;;;;;;5069836;28;20509;-72
2021/03/01 03:05:08;;;;;;;12.97;6.70;;;6.50;99.90;;;;;;5071544;28;20526;-73
2021/03/01 03:07:37;;;;;;;10.00;7.53;;;6.50;99.90;;;;;;5067500;28;20878;-72
2021/03/01 03:10:05;;;;;;;11.20;7.60;;;6.30;99.90;;;;;;5088157;28;20444;-72
2021/03/01 03:12:31;;;;;;;11.17;7.67;;;6.30;99.90;;;;;;5070386;28;20469;-71
2021/03/01 03:14:58;;;;;;;11.00;7.40;;;6.40;99.90;;;;;;5071685;28;20437;-72
2021/03/01 03:17:24;;;;;;;12.70;7.43;;;6.50;99.90;;;;;;5072102;28;20460;-72
2021/03/01 03:19:50;;;;;;;11.27;8.47;;;6.40;99.90;;;;;;5077715;28;20906;-71
2021/03/01 03:22:16;;;;;;;11.03;7.87;;;6.30;99.90;;;;;;5071478;28;20556;-71
2021/03/01 03:24:41;;;;;;;10.33;7.67;;;6.30;99.90;;;;;;5075527;28;20195;-71
2021/03/01 03:27:07;;;;;;;7.93;5.53;;;6.20;99.90;;;;;;5080272;28;20563;-71
2021/03/01 03:29:32;;;;;;;11.60;7.27;;;6.20;99.90;;;;;;5070541;28;20179;-71
2021/03/01 03:31:58;;;;;;;8.63;5.93;;;6.00;99.90;;;;;;5080736;28;20175;-72
2021/03/01 03:34:24;;;;;;;10.23;6.60;;;6.00;99.90;;;;;;5076264;28;20204;-70
2021/03/01 03:37:09;;;;;;;9.37;6.17;;;5.80;99.90;;;;;;5072140;28;20446;-71
2021/03/01 03:39:41;;;;;;;7.70;5.80;;;5.80;99.90;;;;;;5090805;28;21006;-70
2021/03/01 03:42:08;;;;;;;8.73;6.10;;;5.80;99.90;;;;;;5080118;28;20495;-71
2021/03/01 03:44:36;;;;;;;9.20;5.87;;;5.70;99.90;;;;;;5090534;28;20490;-70
2021/03/01 03:47:05;;;;;;;8.27;6.10;;;5.70;99.90;;;;;;5092168;28;20433;-72
2021/03/01 03:49:32;;;;;;;8.03;6.07;;;5.70;99.90;;;;;;5088044;28;20520;-71
2021/03/01 03:52:01;;;;;;;10.00;6.80;;;5.80;99.90;;;;;;5075891;28;20441;-71
2021/03/01 03:54:30;;;;;;;11.80;6.70;;;5.90;99.90;;;;;;5077290;28;20460;-72
2021/03/01 03:56:57;;;;;;;10.80;6.80;;;6.00;99.90;;;;;;5074060;28;20441;-71
2021/03/01 03:59:28;;;;;;;8.23;6.30;;;6.10;99.90;;;;;;5074997;28;20449;-71
2021/03/01 04:01:55;;;;;;;9.53;6.63;;;6.10;99.90;;;;;;5074461;28;20492;-71
2021/03/01 04:04:24;;;;;;;8.40;5.80;;;6.10;99.90;;;;;;5070098;28;20472;-71
2021/03/01 04:06:51;;;;;;;8.43;5.40;;;5.90;99.90;;;;;;5073662;28;20460;-71
2021/03/01 04:09:19;;;;;;;11.07;6.50;;;5.90;99.90;;;;;;5069583;28;20471;-70
2021/03/01 04:11:47;;;;;;;9.43;6.30;;;5.80;99.90;;;;;;5068719;28;20454;-71
2021/03/01 04:14:16;;;;;;;7.90;6.00;;;5.70;99.90;;;;;;5085644;28;20476;-71
2021/03/01 04:16:47;;;;;;;10.10;7.53;;;8.30;99.90;;;;;;5069646;28;20540;-70
2021/03/01 04:19:14;;;;;;;9.33;6.40;;;5.90;99.90;;;;;;5079822;28;20464;-73
2021/03/01 04:21:41;;;;;;;7.90;6.30;;;6.10;99.90;;;;;;5076085;28;20476;-73
2021/03/01 04:24:09;;;;;;;8.20;5.43;;;6.00;99.90;;;;;;5073947;28;20540;-72
2021/03/01 04:26:35;;;;;;;7.67;6.07;;;6.00;99.90;;;;;;5070137;28;20473;-70
2021/03/01 04:29:02;;;;;;;8.30;5.73;;;7.40;99.90;;;;;;5069644;28;20475;-71
2021/03/01 04:31:29;;;;;;;14.10;7.10;;;5.90;99.90;;;;;;5071478;28;20545;-71
2021/03/01 04:33:56;;;;;;;8.20;5.47;;;5.90;99.90;;;;;;5075307;28;20761;-71
2021/03/01 04:36:24;;;;;;;7.03;5.30;;;5.80;99.90;;;;;;5082651;28;20854;-72
2021/03/01 04:38:51;;;;;;;6.30;5.47;;;5.80;99.90;;;;;;5072901;28;20449;-71
2021/03/01 04:41:17;;;;;;;8.10;5.60;;;5.80;99.90;;;;;;5092814;28;20470;-73
2021/03/01 04:43:44;;;;;;;7.30;4.93;;;5.70;99.90;;;;;;5085229;28;20437;-73
2021/03/01 04:46:12;;;;;;;8.50;5.80;;;5.70;99.90;;;;;;5078317;28;20449;-72
2021/03/01 04:48:38;;;;;;;10.00;6.30;;;5.60;99.90;;;;;;5082086;28;20767;-72
2021/03/01 04:51:04;;;;;;;7.00;4.80;;;5.70;99.90;;;;;;5075377;28;20444;-71
2021/03/01 04:53:32;;;;;;;8.60;5.53;;;5.70;99.90;;;;;;5085921;28;20439;-72
2021/03/01 04:55:58;;;;;;;6.57;4.83;;;6.00;99.90;;;;;;5077886;28;20558;-71
2021/03/01 04:58:25;;;;;;;8.33;6.03;;;6.00;99.90;;;;;;5091338;28;20456;-72
2021/03/01 05:00:51;;;;;;;8.03;5.23;;;6.00;99.90;;;;;;5088623;28;20486;-72
2021/03/01 05:03:17;;;;;;;6.70;5.43;;;6.00;99.90;;;;;;5074760;28;20461;-72
2021/03/01 05:05:43;;;;;;;9.13;5.43;;;5.80;99.90;;;;;;5091841;28;20444;-72
2021/03/01 05:08:12;;;;;;;7.47;5.73;;;5.80;99.90;;;;;;5088334;28;20198;-72
2021/03/01 05:10:39;;;;;;;8.03;5.47;;;5.80;99.90;;;;;;5075419;28;20246;-72
2021/03/01 05:13:05;;;;;;;9.43;6.03;;;5.80;99.90;;;;;;5084930;28;20799;-73
2021/03/01 05:15:30;;;;;;;8.10;5.37;;;5.80;99.90;;;;;;5073450;28;20446;-76
2021/03/01 05:17:57;;;;;;;8.27;5.90;;;6.00;99.90;;;;;;5087883;28;20922;-75
2021/03/01 05:20:23;;;;;;;9.10;5.70;;;6.00;99.90;;;;;;5095201;28;20236;-75
2021/03/01 05:22:48;;;;;;;7.67;4.90;;;5.90;99.90;;;;;;5083011;28;20473;-75
2021/03/01 05:25:14;;;;;;;7.17;5.80;;;5.90;99.90;;;;;;5073044;28;20184;-76
2021/03/01 05:27:40;;;;;;;6.57;5.40;;;5.70;99.90;;;;;;5074415;28;20195;-75
2021/03/01 05:30:10;;;;;;;7.50;5.37;;;5.90;99.90;;;;;;5071670;28;20904;-72
2021/03/01 05:32:36;;;;;;;7.27;5.50;;;5.90;99.90;;;;;;5085874;28;20194;-74
2021/03/01 05:35:02;;;;;;;7.40;5.30;;;6.00;99.90;;;;;;5071413;28;20451;-66
2021/03/01 05:37:28;;;;;;;9.27;6.83;;;6.10;99.90;;;;;;5078461;28;20451;-66
2021/03/01 05:39:53;;;;;;;9.90;7.50;;;6.20;99.90;;;;;;5082681;28;20442;-66
2021/03/01 05:42:20;;;;;;;11.60;6.63;;;6.30;99.90;;;;;;5076521;28;20544;-65
2021/03/01 05:44:46;;;;;;;8.47;5.47;;;6.30;99.90;;;;;;5076411;28;20215;-67
2021/03/01 05:47:12;;;;;;;5.97;5.33;;;6.40;99.90;;;;;;5073338;28;20444;-65
2021/03/01 05:49:40;;;;;;;8.30;5.83;;;6.30;99.90;;;;;;5070262;28;20445;-64
2021/03/01 05:52:09;;;;;;;9.23;7.03;;;6.00;99.90;;;;;;5072682;28;20465;-65
2021/03/01 05:54:35;;;;;;;11.00;7.23;;;5.90;99.90;;;;;;5072645;28;20532;-65
2021/03/01 05:57:04;;;;;;;9.60;5.93;;;5.80;99.90;;;;;;5072088;28;20943;-66
2021/03/01 05:59:30;;;;;;;8.40;5.67;;;6.00;99.90;;;;;;5083535;28;20448;-68
2021/03/01 06:01:56;;;;;;;8.40;5.93;;;6.10;99.90;;;;;;5074655;28;20768;-67
2021/03/01 06:04:22;;;;;;;9.83;5.33;;;6.00;99.90;;;;;;5073102;28;20268;-69
2021/03/01 06:06:47;;;;;;;7.10;5.47;;;5.90;99.90;;;;;;5073027;28;21127;-70
2021/03/01 06:09:13;;;;;;;11.03;7.27;;;5.80;99.90;;;;;;5071697;28;20191;-70
2021/03/01 06:11:38;;;;;;;12.03;7.43;;;5.90;99.90;;;;;;5072464;28;20226;-71
2021/03/01 06:14:05;;;;;;;7.43;6.30;;;5.90;99.90;;;;;;5070577;28;20594;-71
2021/03/01 06:16:32;;;;;;;8.73;5.90;;;6.00;99.90;;;;;;5073080;28;20692;-69
2021/03/01 06:18:58;;;;;;;9.80;6.60;;;6.10;99.90;;;;;;5082830;28;20791;-69
2021/03/01 06:21:24;;;;;;;12.93;7.30;;;6.20;99.90;;;;;;5090326;28;20440;-69
2021/03/01 06:23:51;;;;;;;8.53;6.40;;;6.30;99.90;;;;;;5091521;28;20982;-69
2021/03/01 06:26:40;;;;;;;7.03;6.20;;;6.30;99.90;;;;;;5068946;28;20466;-70
2021/03/01 06:29:08;;;;;;;10.83;7.33;;;6.30;99.90;;;;;;5069160;28;21041;-70
2021/03/01 06:31:41;;;;;;;10.00;7.50;;;6.20;99.90;;;;;;5069306;28;20449;-70
2021/03/01 06:34:19;;;;;;;8.93;6.03;;;6.20;99.90;;;;;;5074546;28;20446;-70
2021/03/01 06:37:03;;;;;;;10.03;6.60;;;6.00;99.90;;;;;;5075224;28;20822;-69
2021/03/01 06:39:38;;;;;;;8.60;5.70;;;5.80;99.90;;;;;;5071230;28;21020;-70
2021/03/01 06:42:15;;;;;;;7.60;5.83;;;5.80;99.90;;;;;;5071640;28;20725;-70
2021/03/01 06:44:41;;;;;;;9.13;6.40;;;5.90;99.90;;;;;;5072153;28;20438;-71
2021/03/01 06:47:07;;;;;;;7.83;5.40;;;6.10;99.90;;;;;;5072084;28;20434;-71
2021/03/01 06:49:35;;;;;;;9.23;6.37;;;4.20;99.90;;;;;;5071117;28;20553;-71
2021/03/01 06:52:01;;;;;;;10.83;7.47;;;6.10;99.90;;;;;;5068528;28;20234;-70
2021/03/01 06:54:27;;;;;;;10.97;7.30;;;6.10;99.90;;;;;;5071126;28;20441;-71
2021/03/01 06:56:53;;;;;;;9.00;6.20;;;6.20;99.90;;;;;;5071843;28;20437;-71
2021/03/01 06:59:20;;;;;;;10.30;7.13;;;6.30;99.90;;;;;;5067248;28;20448;-70
2021/03/01 07:01:49;;;;;;;9.73;6.80;;;6.20;99.90;;;;;;5070936;28;20605;-71
2021/03/01 07:04:23;;;;;;;8.00;6.00;;;7.60;99.90;;;;;;5079477;28;21932;-70
2021/03/01 07:06:50;;;;;;;9.37;5.97;;;6.10;99.90;;;;;;5091855;28;20538;-69
2021/03/01 07:09:18;;;;;;;14.00;7.33;;;6.00;99.90;;;;;;5075800;28;20955;-70
2021/03/01 07:11:44;;;;;;;9.10;6.83;;;5.90;99.90;;;;;;5069934;28;20445;-71
2021/03/01 07:14:13;;;;;;;7.80;6.10;;;5.90;99.90;;;;;;5069196;28;20442;-70
2021/03/01 07:16:47;;;;;;;9.60;6.70;;;6.00;99.90;;;;;;5071959;28;20437;-72
2021/03/01 07:19:17;;;;;;;8.33;5.90;;;6.10;99.90;;;;;;5070556;28;20499;-70
2021/03/01 07:21:45;;;;;;;9.20;6.90;;;6.10;99.90;;;;;;5085197;28;20460;-70
2021/03/01 07:24:11;;;;;;;9.23;6.23;;;6.10;99.90;;;;;;5091602;28;20930;-69
2021/03/01 07:26:37;;;;;;;12.10;6.83;;;6.20;99.90;;;;;;5072124;28;20468;-70
2021/03/01 07:29:11;;;;;;;9.10;6.37;;;6.20;99.90;;;;;;5071013;28;20980;-70
2021/03/01 07:31:41;;;;;;;11.17;6.70;;;6.30;99.90;;;;;;5070411;28;20939;-71
2021/03/01 07:34:08;;;;;;;7.40;5.90;;;6.20;99.90;;;;;;5073921;28;20438;-71
2021/03/01 07:36:34;;;;;;;10.27;7.50;;;6.20;99.90;;;;;;5078830;28;20490;-72
2021/03/01 07:39:01;;;;;;;11.70;6.90;;;6.20;99.90;;;;;;5081989;28;20749;-71
2021/03/01 07:41:28;;;;;;;13.37;7.63;;;6.30;99.90;;;;;;5081958;28;20435;-72
2021/03/01 07:43:55;;;;;;;12.07;7.60;;;6.40;99.90;;;;;;5079623;28;20466;-71
2021/03/01 07:46:27;;;;;;;10.40;6.63;;;6.50;99.90;;;;;;5078111;28;20429;-70
2021/03/01 07:48:52;;;;;;;8.67;6.30;;;6.60;99.90;;;;;;5078854;28;20441;-69
2021/03/01 07:51:42;;;;;;;9.60;6.00;;;6.70;99.90;;;;;;5083912;28;20437;-71
2021/03/01 07:54:08;;;;;;;10.13;7.20;;;6.70;99.90;;;;;;5080621;28;20613;-70
2021/03/01 07:56:40;;;;;;;12.40;7.80;;;6.40;99.90;;;;;;5078140;28;20532;-72
2021/03/01 07:59:07;;;;;;;9.90;7.07;;;6.40;99.90;;;;;;5082660;28;20452;-73
2021/03/01 08:01:33;;;;;;;11.80;7.63;;;6.60;99.90;;;;;;5075298;28;20500;-72
2021/03/01 08:03:59;;;;;;;14.17;8.50;;;6.50;99.90;;;;;;5071431;28;20822;-71
2021/03/01 08:06:45;;;;;;;11.77;8.03;;;6.60;99.90;;;;;;5078386;28;20429;-71
2021/03/01 08:09:11;;;;;;;12.50;9.33;;;6.70;99.90;;;;;;5072900;28;20557;-70
2021/03/01 08:11:39;;;;;;;9.83;7.27;;;6.80;99.90;;;;;;5081039;28;20504;-71
2021/03/01 08:14:13;;;;;;;10.57;7.10;;;6.70;99.90;;;;;;5073968;28;20648;-70
2021/03/01 08:16:39;;;;;;;11.23;7.40;;;6.70;99.90;;;;;;5078119;28;20792;-70
2021/03/01 08:19:05;;;;;;;18.33;7.83;;;6.80;99.90;;;;;;5070259;28;20429;-70
2021/03/01 08:22:05;;;;;;;10.57;6.70;;;7.80;99.90;;;;;;5070339;28;20971;-67
2021/03/01 08:24:50;;;;;;;8.13;7.23;;;6.90;99.90;;;;;;5087290;28;20432;-69
2021/03/01 08:27:24;;;;;;;13.50;7.43;;;6.90;99.90;;;;;;5067573;28;20461;-70
2021/03/01 08:30:19;;;;;;;9.40;7.07;;;7.10;99.90;;;;;;5069247;28;20433;-69
2021/03/01 08:33:04;;;;;;;9.40;7.37;;;7.00;99.90;;;;;;5071788;28;20433;-69
2021/03/01 08:35:30;;;;;;;10.93;7.90;;;7.00;99.90;;;;;;5070295;28;20433;-69
2021/03/01 08:37:56;;;;;;;13.90;8.50;;;7.10;99.90;;;;;;5070796;28;21016;-70
2021/03/01 08:40:23;;;;;;;11.57;7.47;;;7.30;99.90;;;;;;5082039;28;20445;-72
2021/03/01 08:43:02;;;;;;;7.23;5.90;;;7.30;99.90;;;;;;5079334;28;20225;-71
2021/03/01 08:45:38;;;;;;;12.53;6.87;;;7.30;99.90;;;;;;5069432;28;20437;-70
2021/03/01 08:48:06;;;;;;;10.70;6.90;;;7.30;99.90;;;;;;5073396;28;20436;-69
2021/03/01 08:50:36;;;;;;;7.90;5.77;;;7.20;99.90;;;;;;5082405;28;20460;-72
2021/03/01 08:53:02;;;;;;;6.60;5.70;;;7.10;99.90;;;;;;5076309;28;20534;-72
2021/03/01 08:55:28;;;;;;;8.73;6.57;;;7.00;99.90;;;;;;5070371;28;20446;-69
2021/03/01 08:57:59;;;;;;;8.20;6.53;;;7.00;99.90;;;;;;5069242;28;20183;-70
2021/03/01 09:00:28;;;;;;;9.00;6.47;;;7.10;99.90;;;;;;5068685;28;20476;-70
2021/03/01 09:03:30;;;;;;;13.93;7.77;;;7.20;99.90;;;;;;5070415;28;20492;-72
2021/03/01 09:06:14;;;;;;;8.30;6.60;;;7.40;99.90;;;;;;5007363;28;20471;-71
2021/03/01 09:08:44;;;;;;;9.60;7.37;;;7.20;99.90;;;;;;5069682;28;20436;-71
2021/03/01 09:11:15;;;;;;;9.20;6.80;;;7.20;99.90;;;;;;5070517;28;20524;-72
2021/03/01 09:13:45;;;;;;;9.33;6.50;;;7.20;99.90;;;;;;5069959;28;20524;-71
2021/03/01 09:16:15;;;;;;;8.13;6.50;;;7.10;99.90;;;;;;5078315;28;20441;-71
2021/03/01 09:18:42;;;;;;;8.80;6.90;;;7.10;99.90;;;;;;5091902;28;20439;-71
2021/03/01 09:21:09;;;;;;;10.63;6.87;;;7.10;99.90;;;;;;5076197;28;20494;-72
2021/03/01 09:23:38;;;;;;;9.93;7.80;;;7.20;99.90;;;;;;5086566;28;20462;-70
2021/03/01 09:26:05;;;;;;;9.13;7.73;;;7.30;99.90;;;;;;5078120;28;20544;-67
2021/03/01 09:28:33;;;;;;;9.90;7.37;;;7.30;99.90;;;;;;5086963;28;20490;-70
2021/03/01 09:31:04;;;;;;;8.90;6.43;;;7.30;99.90;;;;;;5083816;28;20433;-69
2021/03/01 09:33:30;;;;;;;11.73;7.20;;;7.40;99.90;;;;;;5085107;28;20828;-70
2021/03/01 09:35:56;;;;;;;9.57;8.00;;;7.60;99.90;;;;;;5078628;28;20449;-71
2021/03/01 09:38:22;;;;;;;12.20;8.27;;;7.60;99.90;;;;;;5085178;28;20183;-70
2021/03/01 09:41:01;;;;;;;11.67;8.63;;;7.70;99.90;;;;;;5084515;28;20420;-70
2021/03/01 09:43:27;;;;;;;10.37;6.70;;;7.70;99.90;;;;;;5082102;28;20221;-70
2021/03/01 09:45:54;;;;;;;10.30;7.80;;;7.60;99.90;;;;;;5082664;28;20441;-69
2021/03/01 09:48:19;;;;;;;10.10;7.53;;;7.70;99.90;;;;;;5085930;28;21183;-71
2021/03/01 09:50:46;;;;;;;10.33;7.53;;;7.70;99.90;;;;;;5077679;28;20451;-69
2021/03/01 09:53:14;;;;;;;9.60;7.60;;;7.70;99.90;;;;;;5084009;28;20290;-70
2021/03/01 09:55:40;;;;;;;14.77;7.53;;;7.80;99.90;;;;;;5080185;28;20481;-71
2021/03/01 09:58:29;;;;;;;8.00;6.70;;;7.90;99.90;;;;;;5075378;28;20457;-69
2021/03/01 10:01:18;;;;;;;8.00;6.77;;;7.90;99.90;;;;;;5074613;28;20275;-70
2021/03/01 10:03:46;;;;;;;7.70;6.40;;;7.90;97.30;;;;;;5073024;28;21023;-69
2021/03/01 10:06:13;;;;;;;8.73;6.73;;;8.00;74.90;;;;;;5073797;28;20479;-69
2021/03/01 10:08:40;;;;;;;12.97;7.00;;;7.80;78.50;;;;;;5082580;28;20464;-70
2021/03/01 10:11:23;;;;;;;9.27;7.00;;;7.80;87.20;;;;;;5086485;28;20418;-71
2021/03/01 10:13:49;;;;;;;8.17;6.37;;;7.90;89.60;;;;;;5083607;28;20949;-71
2021/03/01 10:16:28;;;;;;;8.17;6.23;;;8.00;56.40;;;;;;5086564;28;20441;-70
2021/03/01 10:18:54;;;;;;;8.27;6.23;;;7.70;44.80;;;;;;5090661;28;20436;-70
2021/03/01 10:21:31;;;;;;;9.67;6.40;;;7.80;57.10;;;;;;5076887;28;20485;-71
2021/03/01 10:24:04;;;;;;;10.20;6.90;;;7.80;55.80;;;;;;5085422;28;20182;-71
2021/03/01 10:26:29;;;;;;;9.17;6.50;;;7.90;46.70;;;;;;5083911;28;20894;-70
2021/03/01 10:29:00;;;;;;;8.60;6.47;;;7.90;53.80;;;;;;5090515;28;20524;-70
2021/03/01 10:31:37;;;;;;;7.97;6.23;;;8.00;41.10;;;;;;5077635;28;20945;-69
2021/03/01 10:34:07;;;;;;;10.00;7.17;;;8.00;40.50;;;;;;5088628;28;21232;-71
2021/03/01 10:36:48;;;;;;;8.30;6.07;;;8.10;36.30;;;;;;5088334;28;20432;-71
2021/03/01 10:39:22;;;;;;;8.70;6.40;;;8.30;18.80;;;;;;5079705;28;20433;-71
2021/03/01 10:41:50;;;;;;;7.63;6.10;;;8.40;8.80;;;;;;5082027;28;20431;-72
2021/03/01 10:44:17;;;;;;;7.70;5.73;;;8.40;11.30;;;;;;5090063;28;20422;-71
2021/03/01 10:46:49;;;;;;;8.40;6.17;;;8.70;6.00;;;;;;5081106;28;20437;-71
2021/03/01 10:49:29;;;;;;;9.70;6.60;;;8.90;1.00;;;;;;5081026;28;20428;-71
2021/03/01 10:51:57;;;;;;;7.20;5.90;;;9.20;1.00;;;;;;5085836;28;20429;-71
2021/03/01 10:54:23;;;;;;;13.53;5.60;;;9.20;1.00;;;;;;5086999;28;20430;-72
2021/03/01 10:56:49;;;;;;;8.90;6.27;;;9.20;1.00;;;;;;5081701;28;20445;-71
2021/03/01 10:59:15;;;;;;;8.27;6.43;;;9.30;1.00;;;;;;5080025;28;20449;-70
2021/03/01 11:01:43;;;;;;;8.50;6.80;;;9.30;1.00;;;;;;5086985;28;20745;-71
2021/03/01 11:04:10;;;;;;;7.60;6.00;;;9.30;1.00;;;;;;5081351;28;20442;-71
2021/03/01 11:06:35;;;;;;;8.27;6.20;;;9.50;1.00;;;;;;5092638;28;20926;-70
2021/03/01 11:09:03;;;;;;;7.53;6.40;;;9.70;1.00;;;;;;5078407;28;20430;-70
2021/03/01 11:11:29;;;;;;;8.90;6.30;;;9.90;1.00;;;;;;5080198;28;20186;-70
2021/03/01 11:13:54;;;;;;;12.13;6.93;;;9.90;1.00;;;;;;5082344;28;20448;-70
2021/03/01 11:16:20;;;;;;;6.83;5.87;;;10.10;1.00;;;;;;5089067;28;20181;-71
2021/03/01 11:18:46;;;;;;;12.93;6.87;;;;;;;;;;5086439;28;20171;-72
2021/03/01 11:21:12;;;;;;;7.57;5.77;;;10.10;1.00;;;;;;5086098;28;20267;-69
2021/03/01 11:23:37;;;;;;;7.83;6.23;;;10.10;1.00;;;;;;5077807;28;20567;-71
2021/03/01 11:26:03;;;;;;;8.13;6.90;;;10.10;1.00;;;;;;5084758;28;20222;-71
2021/03/01 11:28:29;;;;;;;10.03;7.30;;;10.10;1.00;;;;;;5087389;28;20230;-71
2021/03/01 11:30:55;;;;;;;10.33;7.50;;;10.10;1.00;;;;;;5080576;28;20185;-71
2021/03/01 11:33:21;;;;;;;7.37;6.40;;;9.90;1.00;;;;;;5080340;28;20198;-71
2021/03/01 11:35:48;;;;;;;7.87;5.60;;;9.90;1.00;;;;;;5086490;28;20459;-70
2021/03/01 11:38:14;;;;;;;8.47;6.40;;;9.60;1.00;;;;;;5080754;28;20461;-71
2021/03/01 11:40:40;;;;;;;8.67;6.47;;;9.90;1.00;;;;;;5086713;28;20448;-71
2021/03/01 11:43:05;;;;;;;6.63;5.93;;;9.70;1.00;;;;;;5079063;28;20818;-71
2021/03/01 11:45:31;;;;;;;6.30;5.50;;;9.90;1.00;;;;;;5083711;28;20274;-70
2021/03/01 11:47:56;;;;;;;6.80;5.60;;;10.10;1.00;;;;;;5082350;28;20177;-72
2021/03/01 11:50:22;;;;;;;6.17;5.60;;;10.60;1.00;;;;;;5086359;28;20187;-72
2021/03/01 11:52:48;;;;;;;7.67;6.53;;;10.60;1.00;;;;;;5084533;28;20221;-71
2021/03/01 11:55:13;;;;;;;6.83;6.13;;;11.00;1.00;;;;;;5077897;28;20633;-71
2021/03/01 11:57:39;;;;;;;7.80;6.07;;;11.20;1.00;;;;;;5077799;28;20191;-73
2021/03/01 12:00:07;;;;;;;7.70;5.90;;;11.30;1.00;;;;;;5078779;28;20211;-71
2021/03/01 12:02:33;;;;;;;6.57;5.87;;;11.30;1.00;;;;;;5085870;28;21024;-71
2021/03/01 12:04:59;;;;;;;7.03;5.60;;;11.10;1.00;;;;;;5078153;28;20414;-71
2021/03/01 12:07:25;;;;;;;8.90;5.97;;;11.20;1.00;;;;;;5081041;28;20187;-71
2021/03/01 12:09:50;;;;;;;6.93;6.23;;;11.40;1.00;;;;;;5087692;28;20456;-70
2021/03/01 12:12:16;;;;;;;7.13;6.43;;;11.60;1.00;;;;;;5081219;28;20189;-71
2021/03/01 12:14:41;;;;;;;6.90;6.20;;;11.60;1.00;;;;;;5077435;28;20189;-71
2021/03/01 12:17:10;;;;;;;6.03;5.50;;;11.70;1.00;;;;;;5078658;28;20203;-71
2021/03/01 12:19:38;;;;;;;8.50;7.37;;;12.10;1.00;;;;;;5078758;28;20210;-71
2021/03/01 12:22:04;;;;;;;8.30;6.83;;;12.30;1.00;;;;;;5084698;28;20493;-71
2021/03/01 12:24:30;;;;;;;8.77;6.50;;;12.40;1.00;;;;;;5081467;28;20467;-71
2021/03/01 12:26:55;;;;;;;6.67;5.97;;;12.50;1.00;;;;;;5081033;28;20280;-70
2021/03/01 12:29:21;;;;;;;6.90;6.10;;;12.70;1.00;;;;;;5081655;28;20645;-73
2021/03/01 12:31:46;;;;;;;8.40;7.07;;;12.90;1.00;;;;;;5082262;28;20549;-72
2021/03/01 12:34:12;;;;;;;7.63;6.93;;;12.90;1.00;;;;;;5072894;28;20178;-72
2021/03/01 12:36:38;;;;;;;6.63;5.93;;;12.90;1.00;;;;;;5081763;28;20180;-71
2021/03/01 12:39:04;;;;;;;8.47;6.83;;;12.90;1.00;;;;;;5078649;28;20190;-71
2021/03/01 12:41:29;;;;;;;9.00;7.00;;;12.80;1.00;;;;;;5086650;28;20179;-71
2021/03/01 12:43:55;;;;;;;7.00;6.30;;;12.80;1.00;;;;;;5075365;28;20835;-72
2021/03/01 12:46:21;;;;;;;6.43;5.67;;;12.60;1.00;;;;;;5071454;28;20269;-71
2021/03/01 12:48:48;;;;;;;7.33;6.63;;;12.60;1.00;;;;;;5078367;28;20180;-71
2021/03/01 12:51:14;;;;;;;7.90;7.10;;;12.30;1.00;;;;;;5085888;28;20187;-71
2021/03/01 12:53:39;;;;;;;7.83;6.77;;;11.90;1.00;;;;;;5090363;28;20956;-70
2021/03/01 12:56:05;;;;;;;8.77;7.17;;;13.60;1.00;;;;;;5080528;28;20211;-70
2021/03/01 12:58:31;;;;;;;8.23;6.70;;;11.80;1.00;;;;;;5092306;28;20539;-71